| time (UTC) | temp C | wind direction | speed KPH | gust KPH | rain 1hr cm | rain 24hr cm | rain mn cm | humidity % | barometer mb |
| 20260507213446 | 14 | 243 | 3.2 | 8.0 | 0.00 | 0.00 | 0.00 | 36 | 1004.8 |
| 20260507212943 | 13 | 274 | 1.6 | 4.8 | 0.00 | 0.00 | 0.00 | 37 | 1004.9 |
| 20260507212438 | 13 | 270 | 1.6 | 8.0 | 0.00 | 0.00 | 0.00 | 40 | 1005.1 |
| 20260507211936 | 13 | 210 | 6.4 | 16.1 | 0.00 | 0.00 | 0.00 | 37 | 1005.0 |
| 20260507211432 | 14 | 190 | 8.0 | 14.5 | 0.00 | 0.00 | 0.00 | 35 | 1004.9 |
| 20260507210929 | 14 | 225 | 8.0 | 16.1 | 0.00 | 0.00 | 0.00 | 36 | 1005.0 |
| 20260507210426 | 14 | 217 | 3.2 | 4.8 | 0.00 | 0.00 | 0.00 | 35 | 1004.8 |
| 20260507205923 | 14 | 238 | 1.6 | 14.5 | 0.00 | 0.00 | 0.00 | 36 | 1004.8 |
| 20260507205420 | 14 | 326 | 6.4 | 9.7 | 0.00 | 0.00 | 0.00 | 37 | 1004.9 |
| 20260507204916 | 14 | 260 | 1.6 | 17.7 | 0.00 | 0.00 | 0.00 | 41 | 1004.8 |
| 20260507204412 | 15 | 291 | 3.2 | 4.8 | 0.00 | 0.00 | 0.00 | 33 | 1004.8 |
| 20260507203910 | 14 | 271 | 3.2 | 8.0 | 0.00 | 0.00 | 0.00 | 32 | 1004.5 |
| 20260507203408 | 14 | 227 | 12.9 | 16.1 | 0.00 | 0.00 | 0.00 | 33 | 1004.6 |
| 20260507202904 | 15 | 303 | 8.0 | 9.7 | 0.00 | 0.00 | 0.00 | 32 | 1004.6 |
| 20260507202401 | 15 | 207 | 4.8 | 9.7 | 0.00 | 0.00 | 0.00 | 33 | 1004.8 |
| 20260507201856 | 15 | 279 | 4.8 | 8.0 | 0.00 | 0.00 | 0.00 | 32 | 1004.5 |
| 20260507201352 | 16 | 7 | 4.8 | 8.0 | 0.00 | 0.00 | 0.00 | 34 | 1004.2 |
| 20260507200848 | 15 | 274 | 1.6 | 4.8 | 0.00 | 0.00 | 0.00 | 33 | 1004.3 |
| 20260507200344 | 16 | 270 | 1.6 | 8.0 | 0.00 | 0.00 | 0.00 | 34 | 1004.5 |
| 20260507195841 | 15 | 294 | 3.2 | 4.8 | 0.00 | 0.00 | 0.00 | 35 | 1004.2 |
| 20260507195338 | 14 | 247 | 8.0 | 14.5 | 0.00 | 0.00 | 0.00 | 34 | 1004.5 |
| 20260507194835 | 14 | 250 | 0.0 | 4.8 | 0.00 | 0.00 | 0.00 | 38 | 1004.3 |
| 20260507194331 | 13 | 245 | 1.6 | 9.7 | 0.00 | 0.00 | 0.00 | 36 | 1004.6 |
| 20260507193828 | 14 | 226 | 6.4 | 11.3 | 0.00 | 0.00 | 0.00 | 37 | 1004.6 |
| 20260507193325 | 13 | 230 | 9.7 | 11.3 | 0.00 | 0.00 | 0.00 | 37 | 1004.6 |
| 20260507192821 | 13 | 232 | 3.2 | 4.8 | 0.00 | 0.00 | 0.00 | 34 | 1004.4 |
| 20260507192318 | 13 | 213 | 6.4 | 14.5 | 0.00 | 0.00 | 0.00 | 37 | 1004.6 |
| 20260507191814 | 13 | 234 | 8.0 | 14.5 | 0.00 | 0.00 | 0.00 | 37 | 1004.9 |
| 20260507191310 | 14 | 250 | 8.0 | 11.3 | 0.00 | 0.00 | 0.00 | 34 | 1004.9 |
| 20260507190808 | 14 | 181 | 8.0 | 24.1 | 0.00 | 0.00 | 0.00 | 39 | 1005.0 |
| 20260507190306 | 15 | 287 | 8.0 | 16.1 | 0.00 | 0.00 | 0.00 | 33 | 1005.2 |
| 20260507185804 | 15 | 262 | 1.6 | 4.8 | 0.00 | 0.00 | 0.00 | 35 | 1004.8 |
| 20260507185300 | 15 | 204 | 4.8 | 9.7 | 0.00 | 0.00 | 0.00 | 37 | 1004.8 |
| 20260507184758 | 15 | 221 | 12.9 | 17.7 | 0.00 | 0.00 | 0.00 | 32 | 1005.0 |
| 20260507184256 | 14 | 341 | 3.2 | 3.2 | 0.00 | 0.00 | 0.00 | 34 | 1004.8 |
| 20260507183753 | 13 | 261 | 1.6 | 1.6 | 0.00 | 0.00 | 0.00 | 41 | 1004.8 |
| 20260507183250 | 14 | 255 | 1.6 | 3.2 | 0.00 | 0.00 | 0.00 | 41 | 1004.9 |
| 20260507182748 | 13 | 292 | 0.0 | 4.8 | 0.00 | 0.00 | 0.00 | 37 | 1004.9 |
| 20260507182247 | 13 | 292 | 6.4 | 12.9 | 0.00 | 0.00 | 0.00 | 37 | 1005.1 |
| 20260507181745 | 13 | 263 | 1.6 | 9.7 | 0.00 | 0.00 | 0.00 | 39 | 1005.1 |
| 20260507181241 | 13 | 235 | 0.0 | 3.2 | 0.00 | 0.00 | 0.00 | 43 | 1005.1 |
| 20260507180738 | 13 | 278 | 1.6 | 3.2 | 0.00 | 0.00 | 0.00 | 45 | 1004.9 |
| 20260507180235 | 13 | 266 | 3.2 | 12.9 | 0.00 | 0.00 | 0.00 | 41 | 1005.2 |
| 20260507175730 | 15 | 279 | 4.8 | 9.7 | 0.00 | 0.00 | 0.00 | 38 | 1005.1 |
| 20260507175227 | 13 | 303 | 1.6 | 3.2 | 0.00 | 0.00 | 0.00 | 44 | 1004.9 |
| 20260507174725 | 13 | 287 | 0.0 | 3.2 | 0.00 | 0.00 | 0.00 | 41 | 1005.0 |
| 20260507174223 | 13 | 247 | 3.2 | 14.5 | 0.00 | 0.00 | 0.00 | 41 | 1005.1 |
| 20260507173720 | 13 | 223 | 3.2 | 4.8 | 0.00 | 0.00 | 0.00 | 43 | 1005.1 |
| 20260507173216 | 13 | 297 | 8.0 | 11.3 | 0.00 | 0.00 | 0.00 | 39 | 1005.1 |
| 20260507172713 | 13 | 261 | 3.2 | 17.7 | 0.00 | 0.00 | 0.00 | 44 | 1005.3 |
| 20260507172210 | 13 | 225 | 12.9 | 14.5 | 0.00 | 0.00 | 0.00 | 45 | 1005.3 |
| 20260507171710 | 13 | 278 | 4.8 | 11.3 | 0.00 | 0.00 | 0.00 | 45 | 1005.2 |
| 20260507171208 | 12 | 229 | 9.7 | 16.1 | 0.00 | 0.00 | 0.00 | 44 | 1005.4 |
| 20260507170704 | 12 | 288 | 3.2 | 8.0 | 0.00 | 0.00 | 0.00 | 45 | 1005.6 |
| 20260507170202 | 12 | 294 | 3.2 | 14.5 | 0.00 | 0.00 | 0.00 | 52 | 1005.6 |
| 20260507165657 | 12 | 238 | 1.6 | 3.2 | 0.00 | 0.00 | 0.00 | 56 | 1005.8 |
| 20260507165154 | 12 | 105 | 4.8 | 4.8 | 0.00 | 0.00 | 0.00 | 57 | 1005.8 |
| 20260507164649 | 12 | 178 | 3.2 | 8.0 | 0.00 | 0.00 | 0.00 | 59 | 1005.8 |
| 20260507164147 | 13 | 247 | 4.8 | 8.0 | 0.00 | 0.00 | 0.00 | 56 | 1005.5 |
| 20260507163644 | 13 | 237 | 4.8 | 8.0 | 0.00 | 0.00 | 0.00 | 53 | 1005.7 |
| 20260507163142 | 12 | 240 | 4.8 | 8.0 | 0.00 | 0.00 | 0.00 | 55 | 1005.9 |
| 20260507162637 | 13 | 221 | 6.4 | 9.7 | 0.00 | 0.00 | 0.00 | 54 | 1005.9 |
| 20260507162134 | 12 | 245 | 3.2 | 11.3 | 0.00 | 0.00 | 0.00 | 56 | 1005.9 |
| 20260507161630 | 12 | 267 | 6.4 | 16.1 | 0.00 | 0.00 | 0.00 | 55 | 1005.8 |
| 20260507161127 | 12 | 268 | 4.8 | 14.5 | 0.00 | 0.00 | 0.00 | 60 | 1006.1 |
| 20260507160623 | 12 | 231 | 9.7 | 11.3 | 0.00 | 0.00 | 0.00 | 56 | 1005.9 |
| 20260507160120 | 12 | 191 | 1.6 | 9.7 | 0.00 | 0.00 | 0.00 | 58 | 1006.1 |
| 20260507155615 | 12 | 217 | 9.7 | 16.1 | 0.00 | 0.00 | 0.00 | 56 | 1006.0 |
| 20260507155112 | 12 | 212 | 8.0 | 11.3 | 0.00 | 0.00 | 0.00 | 58 | 1006.1 |
| 20260507154609 | 12 | 224 | 8.0 | 11.3 | 0.00 | 0.00 | 0.00 | 58 | 1006.0 |
| 20260507154106 | 12 | 32 | 4.8 | 9.7 | 0.00 | 0.00 | 0.00 | 56 | 1006.1 |
| 20260507153603 | 12 | 223 | 16.1 | 20.9 | 0.00 | 0.00 | 0.00 | 58 | 1006.2 |
| 20260507153059 | 12 | 195 | 8.0 | 12.9 | 0.00 | 0.00 | 0.00 | 60 | 1006.0 |
| 20260507152555 | 12 | 282 | 6.4 | 11.3 | 0.00 | 0.00 | 0.00 | 59 | 1006.3 |
| 20260507152052 | 12 | 264 | 3.2 | 8.0 | 0.00 | 0.00 | 0.00 | 56 | 1006.1 |
| 20260507151548 | 12 | 227 | 3.2 | 3.2 | 0.00 | 0.00 | 0.00 | 55 | 1006.1 |
| 20260507151045 | 12 | 273 | 1.6 | 11.3 | 0.00 | 0.00 | 0.00 | 63 | 1006.1 |
| 20260507150542 | 12 | 194 | 9.7 | 11.3 | 0.00 | 0.00 | 0.00 | 61 | 1006.4 |
| 20260507150034 | 12 | 192 | 11.3 | 12.9 | 0.00 | 0.00 | 0.00 | 62 | 1006.2 |
| 20260507145533 | 12 | 211 | 8.0 | 9.7 | 0.00 | 0.00 | 0.00 | 60 | 1006.1 |
| 20260507145032 | 11 | 271 | 1.6 | 1.6 | 0.00 | 0.00 | 0.00 | 63 | 1006.1 |
| 20260507144528 | 11 | 243 | 1.6 | 9.7 | 0.00 | 0.00 | 0.00 | 66 | 1006.2 |
| 20260507144026 | 12 | 293 | 1.6 | 4.8 | 0.00 | 0.00 | 0.00 | 65 | 1006.1 |
| 20260507143523 | 12 | 266 | 1.6 | 8.0 | 0.00 | 0.00 | 0.00 | 64 | 1006.1 |
| 20260507143020 | 12 | 232 | 1.6 | 3.2 | 0.00 | 0.00 | 0.00 | 64 | 1006.2 |
| 20260507142515 | 12 | 215 | 8.0 | 16.1 | 0.00 | 0.00 | 0.00 | 66 | 1006.0 |
| 20260507142013 | 12 | 249 | 1.6 | 3.2 | 0.00 | 0.00 | 0.00 | 64 | 1006.2 |
| 20260507141508 | 12 | 311 | 1.6 | 4.8 | 0.00 | 0.00 | 0.00 | 61 | 1006.1 |
| 20260507141007 | 12 | 266 | 0.0 | 1.6 | 0.00 | 0.00 | 0.00 | 66 | 1006.1 |
| 20260507140502 | 11 | 287 | 1.6 | 3.2 | 0.00 | 0.00 | 0.00 | 63 | 1006.3 |
| 20260507135959 | 11 | 301 | 3.2 | 4.8 | 0.00 | 0.00 | 0.00 | 62 | 1006.4 |
| 20260507135456 | 11 | 289 | 0.0 | 4.8 | 0.00 | 0.00 | 0.00 | 63 | 1006.4 |
| 20260507134953 | 11 | 289 | 1.6 | 3.2 | 0.00 | 0.00 | 0.00 | 67 | 1006.3 |
| 20260507134450 | 11 | 197 | 4.8 | 8.0 | 0.00 | 0.00 | 0.00 | 70 | 1006.4 |
| 20260507133946 | 11 | 254 | 1.6 | 4.8 | 0.00 | 0.00 | 0.00 | 68 | 1006.4 |
| 20260507133442 | 11 | 219 | 9.7 | 11.3 | 0.00 | 0.00 | 0.00 | 67 | 1006.7 |
| 20260507132941 | 10 | 297 | 3.2 | 4.8 | 0.00 | 0.00 | 0.00 | 67 | 1006.7 |
| 20260507132436 | 10 | 273 | 3.2 | 9.7 | 0.00 | 0.00 | 0.00 | 72 | 1006.7 |
| 20260507131933 | 10 | 236 | 3.2 | 8.0 | 0.00 | 0.00 | 0.00 | 72 | 1006.7 |
| 20260507131430 | 10 | 271 | 1.6 | 8.0 | 0.00 | 0.00 | 0.00 | 74 | 1006.5 |
| 20260507130927 | 10 | 261 | 1.6 | 3.2 | 0.00 | 0.00 | 0.00 | 76 | 1006.6 |
| 20260507130424 | 10 | 283 | 3.2 | 4.8 | 0.00 | 0.00 | 0.00 | 72 | 1006.6 |
| 20260507125923 | 10 | 307 | 1.6 | 4.8 | 0.00 | 0.00 | 0.00 | 75 | 1006.6 |
| 20260507125421 | 10 | 276 | 1.6 | 3.2 | 0.00 | 0.00 | 0.00 | 74 | 1006.5 |
| 20260507124918 | 10 | 295 | 3.2 | 3.2 | 0.00 | 0.00 | 0.00 | 74 | 1006.7 |
| 20260507124413 | 10 | 243 | 3.2 | 11.3 | 0.00 | 0.00 | 0.00 | 75 | 1006.7 |
| 20260507123912 | 9 | 271 | 1.6 | 3.2 | 0.00 | 0.00 | 0.00 | 76 | 1006.5 |
| 20260507123409 | 9 | 298 | 1.6 | 4.8 | 0.00 | 0.00 | 0.00 | 78 | 1006.7 |
| 20260507122906 | 9 | 232 | 1.6 | 9.7 | 0.00 | 0.00 | 0.00 | 78 | 1006.7 |
| 20260507122400 | 9 | 191 | 4.8 | 9.7 | 0.00 | 0.00 | 0.00 | 80 | 1006.6 |
| 20260507121857 | 8 | 232 | 9.7 | 11.3 | 0.00 | 0.00 | 0.00 | 81 | 1006.7 |
| 20260507121352 | 8 | 235 | 3.2 | 9.7 | 0.00 | 0.00 | 0.00 | 81 | 1007.0 |
| 20260507120850 | 8 | 320 | 1.6 | 4.8 | 0.00 | 0.00 | 0.00 | 83 | 1006.9 |
| 20260507120346 | 8 | 287 | 3.2 | 8.0 | 0.00 | 0.00 | 0.00 | 83 | 1007.1 |
| 20260507115842 | 7 | 288 | 0.0 | 3.2 | 0.00 | 0.00 | 0.00 | 87 | 1007.1 |
| 20260507115338 | 8 | 257 | 0.0 | 1.6 | 0.00 | 0.00 | 0.00 | 86 | 1007.1 |
| 20260507114834 | 8 | 277 | 0.0 | 3.2 | 0.00 | 0.00 | 0.00 | 89 | 1007.0 |
| 20260507114331 | 7 | 250 | 1.6 | 9.7 | 0.00 | 0.00 | 0.00 | 88 | 1006.8 |
| 20260507113829 | 7 | 253 | 0.0 | 3.2 | 0.00 | 0.00 | 0.00 | 95 | 1006.8 |
| 20260507113325 | 7 | 291 | 0.0 | 0.0 | 0.00 | 0.00 | 0.00 | 96 | 1006.7 |
| 20260507112823 | 6 | 291 | 0.0 | 1.6 | 0.00 | 0.00 | 0.00 | 96 | 1006.7 |
| 20260507112320 | 6 | 250 | 0.0 | 1.6 | 0.00 | 0.00 | 0.00 | 96 | 1006.6 |
| 20260507111818 | 6 | 319 | 0.0 | 0.0 | 0.00 | 0.00 | 0.00 | 96 | 1006.8 |
| 20260507111314 | 6 | 319 | 1.6 | 1.6 | 0.00 | 0.00 | 0.00 | 96 | 1006.7 |
| 20260507110810 | 6 | 318 | 1.6 | 1.6 | 0.00 | 0.00 | 0.00 | 96 | 1006.6 |
| 20260507110307 | 6 | 317 | 1.6 | 1.6 | 0.00 | 0.00 | 0.00 | 96 | 1006.8 |
| 20260507105804 | 6 | 316 | 0.0 | 0.0 | 0.00 | 0.00 | 0.00 | 96 | 1007.0 |
| 20260507105300 | 6 | 316 | 0.0 | 1.6 | 0.00 | 0.00 | 0.00 | 95 | 1006.9 |
| 20260507104757 | 6 | 317 | 1.6 | 1.6 | 0.00 | 0.00 | 0.00 | 95 | 1006.8 |
| 20260507104253 | 6 | 315 | 0.0 | 0.0 | 0.00 | 0.00 | 0.00 | 95 | 1006.8 |
| 20260507103749 | 6 | 316 | 1.6 | 1.6 | 0.00 | 0.00 | 0.00 | 95 | 1006.9 |
| 20260507103245 | 6 | 315 | 1.6 | 1.6 | 0.00 | 0.00 | 0.00 | 95 | 1007.1 |
| 20260507102742 | 6 | 309 | 1.6 | 1.6 | 0.00 | 0.00 | 0.00 | 96 | 1007.1 |
| 20260507102239 | 6 | 303 | 1.6 | 1.6 | 0.00 | 0.00 | 0.00 | 96 | 1006.8 |
| 20260507101735 | 6 | 301 | 1.6 | 1.6 | 0.00 | 0.00 | 0.00 | 96 | 1006.9 |
| 20260507101230 | 7 | 298 | 0.0 | 1.6 | 0.00 | 0.00 | 0.00 | 96 | 1007.0 |
| 20260507100728 | 7 | 295 | 0.0 | 0.0 | 0.00 | 0.00 | 0.00 | 96 | 1007.1 |
| 20260507100226 | 7 | 296 | 1.6 | 1.6 | 0.00 | 0.00 | 0.00 | 96 | 1006.8 |
| 20260507095724 | 7 | 285 | 0.0 | 0.0 | 0.00 | 0.00 | 0.00 | 96 | 1007.0 |
| 20260507095220 | 7 | 285 | 0.0 | 1.6 | 0.00 | 0.00 | 0.00 | 97 | 1006.8 |
| 20260507094717 | 7 | 285 | 0.0 | 1.6 | 0.00 | 0.00 | 0.00 | 97 | 1006.8 |
| 20260507094214 | 7 | 268 | 0.0 | 0.0 | 0.00 | 0.00 | 0.00 | 97 | 1006.9 |
| 20260507093711 | 7 | 241 | 1.6 | 1.6 | 0.00 | 0.00 | 0.00 | 98 | 1006.9 |
| 20260507093210 | 7 | 252 | 0.0 | 0.0 | 0.00 | 0.00 | 0.00 | 98 | 1006.9 |
| 20260507092707 | 7 | 252 | 0.0 | 0.0 | 0.00 | 0.00 | 0.00 | 98 | 1006.5 |
| 20260507092203 | 7 | 267 | 0.0 | 0.0 | 0.00 | 0.00 | 0.00 | 98 | 1006.3 |
| 20260507091659 | 7 | 303 | 0.0 | 0.0 | 0.00 | 0.00 | 0.00 | 98 | 1006.4 |
| 20260507091156 | 7 | 303 | 0.0 | 0.0 | 0.00 | 0.00 | 0.00 | 98 | 1006.1 |
| 20260507090651 | 7 | 303 | 0.0 | 1.6 | 0.00 | 0.00 | 0.00 | 98 | 1006.6 |
| 20260507090149 | 7 | 303 | 0.0 | 1.6 | 0.00 | 0.00 | 0.00 | 98 | 1006.3 |
| 20260507085645 | 7 | 303 | 0.0 | 0.0 | 0.00 | 0.00 | 0.00 | 98 | 1006.6 |
| 20260507085142 | 7 | 284 | 0.0 | 0.0 | 0.00 | 0.00 | 0.00 | 98 | 1006.7 |
| 20260507084639 | 7 | 260 | 0.0 | 1.6 | 0.00 | 0.00 | 0.00 | 98 | 1006.7 |
| 20260507084136 | 7 | 260 | 0.0 | 0.0 | 0.00 | 0.00 | 0.00 | 98 | 1006.4 |
| 20260507083633 | 7 | 260 | 0.0 | 1.6 | 0.00 | 0.00 | 0.00 | 98 | 1006.3 |
| 20260507083129 | 7 | 259 | 0.0 | 0.0 | 0.00 | 0.00 | 0.00 | 98 | 1006.6 |
| 20260507082625 | 7 | 258 | 1.6 | 1.6 | 0.00 | 0.00 | 0.00 | 98 | 1007.0 |
| 20260507082122 | 7 | 303 | 0.0 | 0.0 | 0.00 | 0.00 | 0.00 | 98 | 1006.8 |
| 20260507081618 | 7 | 303 | 0.0 | 0.0 | 0.00 | 0.00 | 0.00 | 98 | 1006.4 |
| 20260507081115 | 7 | 303 | 0.0 | 1.6 | 0.00 | 0.00 | 0.00 | 98 | 1006.4 |
| 20260507080611 | 7 | 303 | 0.0 | 1.6 | 0.00 | 0.00 | 0.00 | 98 | 1006.5 |
| 20260507080108 | 7 | 303 | 0.0 | 1.6 | 0.00 | 0.00 | 0.00 | 98 | 1006.4 |
| 20260507075603 | 7 | 303 | 0.0 | 0.0 | 0.00 | 0.00 | 0.00 | 98 | 1006.2 |
| 20260507075059 | 7 | 303 | 1.6 | 1.6 | 0.00 | 0.00 | 0.00 | 98 | 1005.9 |
| 20260507074556 | 7 | 303 | 0.0 | 1.6 | 0.00 | 0.00 | 0.00 | 98 | 1006.2 |
| 20260507074055 | 8 | 303 | 0.0 | 1.6 | 0.00 | 0.00 | 0.00 | 98 | 1006.0 |
| 20260507073550 | 8 | 303 | 0.0 | 1.6 | 0.00 | 0.00 | 0.00 | 98 | 1006.1 |
| 20260507073047 | 8 | 291 | 1.6 | 1.6 | 0.00 | 0.00 | 0.00 | 97 | 1006.1 |
| 20260507072545 | 8 | 286 | 0.0 | 1.6 | 0.00 | 0.00 | 0.00 | 97 | 1006.0 |
| 20260507072041 | 8 | 286 | 0.0 | 0.0 | 0.00 | 0.00 | 0.00 | 97 | 1005.9 |
| 20260507071539 | 8 | 275 | 1.6 | 1.6 | 0.00 | 0.00 | 0.00 | 97 | 1005.9 |
| 20260507071035 | 8 | 256 | 0.0 | 1.6 | 0.00 | 0.00 | 0.00 | 97 | 1005.9 |
| 20260507070533 | 8 | 251 | 0.0 | 3.2 | 0.00 | 0.00 | 0.00 | 97 | 1006.1 |
| 20260507070030 | 8 | 279 | 1.6 | 1.6 | 0.00 | 0.00 | 0.00 | 97 | 1006.1 |
| 20260507065526 | 8 | 278 | 0.0 | 1.6 | 0.00 | 0.00 | 0.00 | 97 | 1005.9 |
| 20260507065023 | 8 | 243 | 0.0 | 3.2 | 0.00 | 0.00 | 0.00 | 97 | 1006.1 |
| 20260507064521 | 9 | 231 | 3.2 | 4.8 | 0.00 | 0.00 | 0.00 | 97 | 1006.1 |
| 20260507064019 | 9 | 238 | 1.6 | 1.6 | 0.00 | 0.00 | 0.00 | 97 | 1006.0 |
| 20260507063516 | 9 | 256 | 0.0 | 9.7 | 0.00 | 0.00 | 0.00 | 98 | 1005.8 |
| 20260507063014 | 9 | 284 | 0.0 | 0.0 | 0.00 | 0.00 | 0.00 | 98 | 1005.8 |
| 20260507062510 | 10 | 284 | 0.0 | 1.6 | 0.00 | 0.00 | 0.00 | 98 | 1005.5 |
| 20260507062008 | 10 | 260 | 0.0 | 0.0 | 0.00 | 0.00 | 0.00 | 98 | 1005.5 |
| 20260507061505 | 10 | 309 | 0.0 | 1.6 | 0.00 | 0.00 | 0.00 | 98 | 1005.5 |
| 20260507061003 | 10 | 301 | 0.0 | 0.0 | 0.00 | 0.00 | 0.00 | 98 | 1005.7 |
| 20260507060500 | 10 | 301 | 0.0 | 1.6 | 0.00 | 0.00 | 0.00 | 98 | 1005.4 |
| 20260507055956 | 10 | 276 | 0.0 | 1.6 | 0.00 | 0.00 | 0.00 | 98 | 1005.6 |
| 20260507055452 | 10 | 252 | 0.0 | 1.6 | 0.00 | 0.00 | 0.00 | 98 | 1005.2 |
| 20260507054949 | 10 | 250 | 0.0 | 1.6 | 0.00 | 0.00 | 0.00 | 98 | 1005.3 |
| 20260507054445 | 10 | 234 | 0.0 | 1.6 | 0.00 | 0.00 | 0.00 | 99 | 1005.4 |
| 20260507053942 | 10 | 241 | 0.0 | 1.6 | 0.00 | 0.00 | 0.00 | 99 | 1005.2 |
| 20260507053440 | 10 | 242 | 0.0 | 0.0 | 0.00 | 0.00 | 0.00 | 99 | 1005.3 |
| 20260507052938 | 10 | 242 | 1.6 | 1.6 | 0.00 | 0.00 | 0.00 | 99 | 1005.2 |
| 20260507052435 | 10 | 242 | 0.0 | 0.0 | 0.00 | 0.00 | 0.00 | 99 | 1005.4 |
| 20260507051932 | 10 | 242 | 0.0 | 0.0 | 0.00 | 0.00 | 0.00 | 99 | 1005.3 |
| 20260507051430 | 10 | 242 | 0.0 | 0.0 | 0.00 | 0.00 | 0.00 | 99 | 1005.0 |
| 20260507050927 | 10 | 242 | 0.0 | 0.0 | 0.00 | 0.00 | 0.00 | 99 | 1005.1 |
| 20260507050423 | 10 | 242 | 0.0 | 0.0 | 0.00 | 0.00 | 0.00 | 99 | 1005.2 |
| 20260507045920 | 10 | 247 | 0.0 | 0.0 | 0.00 | 0.00 | 0.00 | 99 | 1005.1 |
| 20260507045416 | 10 | 311 | 1.6 | 1.6 | 0.00 | 0.00 | 0.00 | 99 | 1005.4 |
| 20260507044914 | 10 | 311 | 0.0 | 1.6 | 0.00 | 0.00 | 0.00 | 99 | 1005.3 |
| 20260507044410 | 10 | 311 | 0.0 | 1.6 | 0.00 | 0.00 | 0.00 | 99 | 1005.1 |
| 20260507043907 | 10 | 306 | 0.0 | 1.6 | 0.00 | 0.00 | 0.00 | 99 | 1005.1 |
| 20260507043403 | 10 | 299 | 0.0 | 1.6 | 0.00 | 0.00 | 0.00 | 99 | 1005.0 |
| 20260507042859 | 10 | 299 | 0.0 | 0.0 | 0.00 | 0.00 | 0.00 | 99 | 1004.9 |
| 20260507042356 | 10 | 299 | 0.0 | 1.6 | 0.00 | 0.00 | 0.00 | 98 | 1004.9 |
| 20260507041852 | 10 | 304 | 1.6 | 1.6 | 0.00 | 0.00 | 0.00 | 98 | 1005.2 |
| 20260507041349 | 11 | 295 | 0.0 | 0.0 | 0.00 | 0.00 | 0.00 | 98 | 1005.2 |
| 20260507040846 | 11 | 296 | 0.0 | 3.2 | 0.00 | 0.00 | 0.00 | 98 | 1005.1 |
| 20260507040342 | 11 | 287 | 1.6 | 1.6 | 0.00 | 0.00 | 0.00 | 98 | 1005.3 |
| 20260507035838 | 11 | 308 | 3.2 | 3.2 | 0.18 | 0.58 | 0.58 | 97 | 1005.3 |
| 20260507035333 | 11 | 291 | 0.0 | 1.6 | 0.18 | 0.58 | 0.58 | 97 | 1005.1 |
| 20260507034832 | 11 | 296 | 1.6 | 3.2 | 0.00 | 0.56 | 0.56 | 97 | 1005.3 |
| 20260507034328 | 11 | 251 | 0.0 | 3.2 | 0.13 | 0.56 | 0.56 | 97 | 1004.9 |
| 20260507033826 | 11 | 204 | 4.8 | 8.0 | 0.30 | 0.56 | 0.56 | 96 | 1005.1 |
| 20260507033324 | 12 | 254 | 1.6 | 1.6 | 0.30 | 0.53 | 0.53 | 96 | 1005.0 |
| 20260507032821 | 12 | 284 | 0.0 | 3.2 | 0.13 | 0.51 | 0.51 | 95 | 1005.1 |
| 20260507032317 | 12 | 251 | 3.2 | 8.0 | 0.00 | 0.48 | 0.48 | 94 | 1004.9 |
| 20260507031814 | 12 | 241 | 1.6 | 8.0 | 0.00 | 0.48 | 0.48 | 94 | 1004.9 |
| 20260507031310 | 13 | 228 | 3.2 | 8.0 | 0.00 | 0.48 | 0.48 | 94 | 1004.4 |
| 20260507030806 | 13 | 305 | 1.6 | 4.8 | 0.00 | 0.48 | 0.48 | 94 | 1004.3 |
| 20260507030305 | 13 | 249 | 1.6 | 3.2 | 0.00 | 0.48 | 0.48 | 94 | 1004.2 |
| 20260507025801 | 13 | 236 | 3.2 | 3.2 | 0.00 | 0.48 | 0.48 | 95 | 1004.2 |
| 20260507025258 | 13 | 236 | 3.2 | 4.8 | 0.00 | 0.48 | 0.48 | 94 | 1004.1 |
| 20260507024756 | 13 | 259 | 1.6 | 1.6 | 0.00 | 0.48 | 0.48 | 94 | 1004.4 |
| 20260507024253 | 14 | 246 | 0.0 | 8.0 | 0.00 | 0.48 | 0.48 | 93 | 1004.6 |
| 20260507023749 | 14 | 237 | 4.8 | 4.8 | 0.00 | 0.48 | 0.48 | 93 | 1004.3 |
| 20260507023246 | 14 | 236 | 3.2 | 3.2 | 0.00 | 0.48 | 0.48 | 93 | 1004.3 |
| 20260507022743 | 14 | 241 | 1.6 | 4.8 | 0.00 | 0.48 | 0.48 | 93 | 1004.4 |
| 20260507022239 | 15 | 246 | 0.0 | 3.2 | 0.00 | 0.48 | 0.48 | 94 | 1004.5 |
| 20260507021736 | 15 | 244 | 1.6 | 3.2 | 0.00 | 0.48 | 0.48 | 95 | 1004.2 |
| 20260507021231 | 15 | 209 | 3.2 | 4.8 | 0.00 | 0.48 | 0.48 | 95 | 1004.2 |
| 20260507020730 | 15 | 236 | 1.6 | 3.2 | 0.00 | 0.48 | 0.48 | 95 | 1004.4 |
| 20260507020226 | 15 | 240 | 0.0 | 1.6 | 0.00 | 0.48 | 0.48 | 95 | 1004.1 |
| 20260507015723 | 15 | 244 | 1.6 | 3.2 | 0.00 | 0.48 | 0.48 | 95 | 1004.3 |
| 20260507015221 | 15 | 257 | 1.6 | 1.6 | 0.00 | 0.48 | 0.48 | 95 | 1004.1 |
| 20260507014717 | 15 | 240 | 1.6 | 8.0 | 0.00 | 0.48 | 0.48 | 96 | 1004.4 |
| 20260507014214 | 15 | 200 | 1.6 | 3.2 | 0.00 | 0.48 | 0.48 | 96 | 1004.4 |
| 20260507013710 | 15 | 273 | 0.0 | 1.6 | 0.00 | 0.48 | 0.48 | 96 | 1004.2 |
| 20260507013208 | 15 | 213 | 3.2 | 3.2 | 0.00 | 0.48 | 0.48 | 95 | 1004.2 |
| 20260507012705 | 15 | 255 | 0.0 | 1.6 | 0.00 | 0.48 | 0.48 | 95 | 1004.4 |
| 20260507012200 | 15 | 247 | 0.0 | 3.2 | 0.00 | 0.48 | 0.48 | 95 | 1004.3 |
| 20260507011658 | 15 | 237 | 1.6 | 4.8 | 0.00 | 0.48 | 0.48 | 95 | 1004.4 |
| 20260507011154 | 15 | 168 | 6.4 | 9.7 | 0.00 | 0.48 | 0.48 | 95 | 1004.4 |
| 20260507010649 | 15 | 177 | 4.8 | 11.3 | 0.00 | 0.48 | 0.48 | 95 | 1004.4 |
| 20260507010145 | 15 | 169 | 6.4 | 11.3 | 0.00 | 0.48 | 0.48 | 95 | 1004.3 |
| 20260507005643 | 15 | 162 | 6.4 | 11.3 | 0.00 | 0.48 | 0.48 | 95 | 1004.4 |
| 20260507005138 | 15 | 184 | 3.2 | 11.3 | 0.00 | 0.48 | 0.48 | 94 | 1004.3 |
| 20260507004636 | 15 | 170 | 4.8 | 12.9 | 0.00 | 0.48 | 0.48 | 94 | 1004.3 |
| 20260507004133 | 15 | 200 | 6.4 | 8.0 | 0.00 | 0.48 | 0.48 | 94 | 1004.2 |
| 20260507003630 | 15 | 173 | 11.3 | 14.5 | 0.00 | 0.48 | 0.48 | 94 | 1004.4 |
| 20260507003129 | 15 | 239 | 0.0 | 12.9 | 0.00 | 0.48 | 0.48 | 95 | 1004.1 |
| 20260507002626 | 15 | 169 | 9.7 | 12.9 | 0.00 | 0.48 | 0.48 | 95 | 1004.2 |
| 20260507002122 | 15 | 251 | 0.0 | 14.5 | 0.00 | 0.48 | 0.48 | 94 | 1004.3 |
| 20260507001619 | 15 | 241 | 0.0 | 8.0 | 0.00 | 0.48 | 0.48 | 94 | 1004.1 |
| 20260507001117 | 15 | 237 | 3.2 | 8.0 | 0.00 | 0.48 | 0.48 | 94 | 1004.3 |
| 20260507000613 | 15 | 175 | 6.4 | 12.9 | 0.00 | 0.48 | 0.48 | 93 | 1004.0 |
| 20260507000114 | 15 | 207 | 8.0 | 20.9 | 0.00 | 0.48 | 0.48 | 93 | 1004.0 |
| 20260506235611 | 15 | 175 | 8.0 | 20.9 | 0.00 | 0.48 | 0.48 | 93 | 1004.1 |
| 20260506235111 | 15 | 182 | 8.0 | 16.1 | 0.00 | 0.48 | 0.48 | 93 | 1004.0 |
| 20260506234609 | 15 | 171 | 8.0 | 14.5 | 0.00 | 0.48 | 0.48 | 93 | 1004.0 |
| 20260506234106 | 15 | 230 | 11.3 | 20.9 | 0.00 | 0.48 | 0.48 | 93 | 1004.0 |
| 20260506233603 | 15 | 171 | 11.3 | 16.1 | 0.00 | 0.48 | 0.48 | 93 | 1003.9 |
| 20260506233100 | 15 | 170 | 8.0 | 20.9 | 0.00 | 0.48 | 0.48 | 93 | 1003.8 |
| 20260506232556 | 15 | 166 | 6.4 | 14.5 | 0.00 | 0.48 | 0.48 | 93 | 1003.9 |
| 20260506232056 | 15 | 198 | 8.0 | 16.1 | 0.00 | 0.48 | 0.48 | 93 | 1003.8 |
| 20260506231554 | 15 | 178 | 12.9 | 16.1 | 0.00 | 0.48 | 0.48 | 94 | 1003.9 |
| 20260506231052 | 15 | 191 | 4.8 | 14.5 | 0.00 | 0.48 | 0.48 | 94 | 1003.9 |
| 20260506230548 | 15 | 174 | 8.0 | 16.1 | 0.00 | 0.48 | 0.48 | 94 | 1004.0 |
| 20260506230046 | 15 | 209 | 6.4 | 20.9 | 0.00 | 0.48 | 0.48 | 94 | 1004.2 |
| 20260506225542 | 15 | 215 | 3.2 | 11.3 | 0.00 | 0.48 | 0.48 | 94 | 1003.8 |
| 20260506225038 | 15 | 174 | 9.7 | 14.5 | 0.00 | 0.48 | 0.48 | 94 | 1003.9 |
| 20260506224536 | 15 | 200 | 6.4 | 11.3 | 0.00 | 0.48 | 0.48 | 94 | 1004.0 |
| 20260506224032 | 15 | 183 | 9.7 | 17.7 | 0.00 | 0.48 | 0.48 | 94 | 1004.2 |
| 20260506223528 | 15 | 173 | 9.7 | 16.1 | 0.00 | 0.48 | 0.48 | 94 | 1004.2 |
| 20260506223025 | 15 | 183 | 3.2 | 14.5 | 0.00 | 0.48 | 0.48 | 95 | 1004.1 |
| 20260506222522 | 15 | 159 | 11.3 | 17.7 | 0.00 | 0.48 | 0.48 | 94 | 1004.3 |
| 20260506222018 | 15 | 168 | 6.4 | 12.9 | 0.00 | 0.48 | 0.48 | 95 | 1004.1 |
| 20260506221515 | 15 | 167 | 8.0 | 17.7 | 0.00 | 0.48 | 0.48 | 95 | 1004.4 |
| 20260506221013 | 15 | 233 | 1.6 | 4.8 | 0.00 | 0.48 | 0.48 | 97 | 1004.4 |
| 20260506220509 | 15 | 174 | 4.8 | 11.3 | 0.00 | 0.48 | 0.48 | 97 | 1004.3 |
| 20260506220005 | 15 | 216 | 3.2 | 11.3 | 0.00 | 0.48 | 0.48 | 97 | 1004.3 |
| 20260506215502 | 15 | 234 | 4.8 | 11.3 | 0.00 | 0.48 | 0.48 | 97 | 1004.5 |
| 20260506214957 | 15 | 199 | 3.2 | 9.7 | 0.00 | 0.48 | 0.48 | 97 | 1004.6 |
| 20260506214454 | 15 | 192 | 3.2 | 9.7 | 0.00 | 0.48 | 0.48 | 97 | 1004.8 |
| 20260506213952 | 15 | 177 | 9.7 | 14.5 | 0.18 | 0.48 | 0.48 | 97 | 1004.6 |